sensor_id;sensor_type;location;lat;lon;timestamp;pressure;altitude;pressure_sealevel;temperature;humidity
76819;BME280;65772;51.096;17.006;2023-03-19T00:01:39;100191.29;;;13.15;35.77
76819;BME280;65772;51.096;17.006;2023-03-19T00:04:11;100193.80;;;13.13;35.83
76819;BME280;65772;51.096;17.006;2023-03-19T00:06:42;100192.39;;;13.10;36.03
76819;BME280;65772;51.096;17.006;2023-03-19T00:09:13;100197.13;;;13.08;35.91
76819;BME280;65772;51.096;17.006;2023-03-19T00:11:43;100199.65;;;13.05;35.98
76819;BME280;65772;51.096;17.006;2023-03-19T00:14:15;100204.59;;;13.02;36.13
76819;BME280;65772;51.096;17.006;2023-03-19T00:16:45;100204.06;;;13.01;36.17
76819;BME280;65772;51.096;17.006;2023-03-19T00:19:16;100203.52;;;13.00;36.19
76819;BME280;65772;51.096;17.006;2023-03-19T00:21:47;100208.79;;;12.98;36.30
76819;BME280;65772;51.096;17.006;2023-03-19T00:24:17;100213.87;;;12.95;36.15
76819;BME280;65772;51.096;17.006;2023-03-19T00:26:48;100213.83;;;12.92;36.40
76819;BME280;65772;51.096;17.006;2023-03-19T00:29:19;100212.23;;;12.88;36.36
76819;BME280;65772;51.096;17.006;2023-03-19T00:31:51;100212.32;;;12.85;36.33
76819;BME280;65772;51.096;17.006;2023-03-19T00:34:21;100211.24;;;12.82;36.33
76819;BME280;65772;51.096;17.006;2023-03-19T00:36:52;100206.39;;;12.78;36.41
76819;BME280;65772;51.096;17.006;2023-03-19T00:39:22;100206.67;;;12.76;36.42
76819;BME280;65772;51.096;17.006;2023-03-19T00:41:53;100208.02;;;12.74;36.45
76819;BME280;65772;51.096;17.006;2023-03-19T00:44:24;100207.11;;;12.71;36.47
76819;BME280;65772;51.096;17.006;2023-03-19T00:46:54;100202.61;;;12.68;36.44
76819;BME280;65772;51.096;17.006;2023-03-19T00:49:25;100203.08;;;12.66;36.45
76819;BME280;65772;51.096;17.006;2023-03-19T00:51:55;100197.88;;;12.64;36.68
76819;BME280;65772;51.096;17.006;2023-03-19T00:54:26;100192.19;;;12.61;36.58
76819;BME280;65772;51.096;17.006;2023-03-19T00:56:58;100188.04;;;12.58;36.75
76819;BME280;65772;51.096;17.006;2023-03-19T00:59:29;100187.30;;;12.56;36.64
76819;BME280;65772;51.096;17.006;2023-03-19T01:01:59;100185.55;;;12.54;36.90
76819;BME280;65772;51.096;17.006;2023-03-19T01:04:30;100188.42;;;12.52;36.62
76819;BME280;65772;51.096;17.006;2023-03-19T01:07:01;100180.17;;;12.50;36.75
76819;BME280;65772;51.096;17.006;2023-03-19T01:09:31;100175.36;;;12.49;36.98
76819;BME280;65772;51.096;17.006;2023-03-19T01:12:05;100171.05;;;12.47;37.01
76819;BME280;65772;51.096;17.006;2023-03-19T01:14:35;100172.89;;;12.45;36.95
76819;BME280;65772;51.096;17.006;2023-03-19T01:17:06;100173.02;;;12.43;36.87
76819;BME280;65772;51.096;17.006;2023-03-19T01:19:37;100170.58;;;12.41;37.05
76819;BME280;65772;51.096;17.006;2023-03-19T01:22:08;100172.11;;;12.40;37.09
76819;BME280;65772;51.096;17.006;2023-03-19T01:24:40;100177.74;;;12.39;37.15
76819;BME280;65772;51.096;17.006;2023-03-19T01:27:11;100179.44;;;12.38;37.09
76819;BME280;65772;51.096;17.006;2023-03-19T01:29:41;100181.63;;;12.36;37.05
76819;BME280;65772;51.096;17.006;2023-03-19T01:32:20;100180.90;;;12.34;37.00
76819;BME280;65772;51.096;17.006;2023-03-19T01:35:20;100177.41;;;12.31;37.13
76819;BME280;65772;51.096;17.006;2023-03-19T01:37:50;100176.86;;;12.30;37.14
76819;BME280;65772;51.096;17.006;2023-03-19T01:40:22;100172.91;;;12.28;37.23
76819;BME280;65772;51.096;17.006;2023-03-19T01:42:55;100173.58;;;12.27;37.31
76819;BME280;65772;51.096;17.006;2023-03-19T01:45:47;100172.70;;;12.26;37.27
76819;BME280;65772;51.096;17.006;2023-03-19T01:48:38;100178.29;;;12.23;37.36
76819;BME280;65772;51.096;17.006;2023-03-19T01:51:16;100174.30;;;12.21;37.39
76819;BME280;65772;51.096;17.006;2023-03-19T01:54:01;100174.61;;;12.19;37.51
76819;BME280;65772;51.096;17.006;2023-03-19T01:56:39;100181.24;;;12.17;37.45
76819;BME280;65772;51.096;17.006;2023-03-19T01:59:48;100181.36;;;12.14;37.49
76819;BME280;65772;51.096;17.006;2023-03-19T02:02:41;100179.95;;;12.13;37.71
76819;BME280;65772;51.096;17.006;2023-03-19T02:05:19;100179.39;;;12.11;37.71
76819;BME280;65772;51.096;17.006;2023-03-19T02:07:58;100176.62;;;12.09;37.67
76819;BME280;65772;51.096;17.006;2023-03-19T02:10:31;100186.02;;;12.08;37.61
76819;BME280;65772;51.096;17.006;2023-03-19T02:13:02;100189.23;;;12.06;37.48
76819;BME280;65772;51.096;17.006;2023-03-19T02:15:32;100187.65;;;12.04;37.80
76819;BME280;65772;51.096;17.006;2023-03-19T02:18:03;100188.31;;;12.03;37.85
76819;BME280;65772;51.096;17.006;2023-03-19T02:20:36;100192.54;;;12.01;37.87
76819;BME280;65772;51.096;17.006;2023-03-19T02:23:14;100193.88;;;11.99;37.89
76819;BME280;65772;51.096;17.006;2023-03-19T02:26:08;100193.65;;;11.97;37.87
76819;BME280;65772;51.096;17.006;2023-03-19T02:28:44;100190.87;;;11.94;37.88
76819;BME280;65772;51.096;17.006;2023-03-19T02:31:18;100191.68;;;11.93;37.97
76819;BME280;65772;51.096;17.006;2023-03-19T02:33:59;100191.98;;;11.91;37.99
76819;BME280;65772;51.096;17.006;2023-03-19T02:36:32;100194.17;;;11.90;37.93
76819;BME280;65772;51.096;17.006;2023-03-19T02:39:17;100188.83;;;11.88;37.99
76819;BME280;65772;51.096;17.006;2023-03-19T02:41:51;100185.40;;;11.87;38.11
76819;BME280;65772;51.096;17.006;2023-03-19T02:44:22;100191.37;;;11.86;38.08
76819;BME280;65772;51.096;17.006;2023-03-19T02:46:53;100195.45;;;11.85;38.13
76819;BME280;65772;51.096;17.006;2023-03-19T02:49:24;100194.70;;;11.82;38.08
76819;BME280;65772;51.096;17.006;2023-03-19T02:51:54;100196.21;;;11.81;37.97
76819;BME280;65772;51.096;17.006;2023-03-19T02:54:25;100192.23;;;11.79;38.10
76819;BME280;65772;51.096;17.006;2023-03-19T02:56:56;100195.45;;;11.78;38.15
76819;BME280;65772;51.096;17.006;2023-03-19T02:59:27;100197.33;;;11.78;38.26
76819;BME280;65772;51.096;17.006;2023-03-19T03:01:57;100202.10;;;11.77;38.22
76819;BME280;65772;51.096;17.006;2023-03-19T03:04:28;100202.23;;;11.75;38.20
76819;BME280;65772;51.096;17.006;2023-03-19T03:06:59;100197.42;;;11.74;38.26
76819;BME280;65772;51.096;17.006;2023-03-19T03:09:30;100199.09;;;11.72;38.18
76819;BME280;65772;51.096;17.006;2023-03-19T03:12:01;100201.95;;;11.71;38.23
76819;BME280;65772;51.096;17.006;2023-03-19T03:14:31;100196.96;;;11.69;38.23
76819;BME280;65772;51.096;17.006;2023-03-19T03:17:03;100193.17;;;11.69;38.15
76819;BME280;65772;51.096;17.006;2023-03-19T03:19:34;100197.25;;;11.67;38.30
76819;BME280;65772;51.096;17.006;2023-03-19T03:22:05;100196.73;;;11.67;38.14
76819;BME280;65772;51.096;17.006;2023-03-19T03:24:36;100206.12;;;11.66;38.31
76819;BME280;65772;51.096;17.006;2023-03-19T03:27:07;100200.45;;;11.65;38.28
76819;BME280;65772;51.096;17.006;2023-03-19T03:29:38;100203.16;;;11.64;38.27
76819;BME280;65772;51.096;17.006;2023-03-19T03:32:10;100203.30;;;11.62;38.45
76819;BME280;65772;51.096;17.006;2023-03-19T03:34:41;100199.88;;;11.61;38.51
76819;BME280;65772;51.096;17.006;2023-03-19T03:37:11;100201.95;;;11.63;38.64
76819;BME280;65772;51.096;17.006;2023-03-19T03:39:42;100202.48;;;11.64;38.80
76819;BME280;65772;51.096;17.006;2023-03-19T03:42:13;100196.84;;;11.64;38.71
76819;BME280;65772;51.096;17.006;2023-03-19T03:44:44;100206.59;;;11.63;38.57
76819;BME280;65772;51.096;17.006;2023-03-19T03:47:15;100208.59;;;11.62;38.67
76819;BME280;65772;51.096;17.006;2023-03-19T03:49:47;100208.86;;;11.59;38.76
76819;BME280;65772;51.096;17.006;2023-03-19T03:52:17;100205.92;;;11.58;38.75
76819;BME280;65772;51.096;17.006;2023-03-19T03:54:47;100200.57;;;11.56;38.79
76819;BME280;65772;51.096;17.006;2023-03-19T03:57:18;100204.65;;;11.54;38.65
76819;BME280;65772;51.096;17.006;2023-03-19T03:59:49;100199.85;;;11.53;39.06
76819;BME280;65772;51.096;17.006;2023-03-19T04:02:20;100199.98;;;11.52;39.03
76819;BME280;65772;51.096;17.006;2023-03-19T04:04:51;100199.77;;;11.50;38.98
76819;BME280;65772;51.096;17.006;2023-03-19T04:07:22;100204.36;;;11.49;38.85
76819;BME280;65772;51.096;17.006;2023-03-19T04:09:57;100205.87;;;11.48;39.04
76819;BME280;65772;51.096;17.006;2023-03-19T04:12:28;100201.91;;;11.47;38.98
76819;BME280;65772;51.096;17.006;2023-03-19T04:14:59;100203.42;;;11.46;39.13
76819;BME280;65772;51.096;17.006;2023-03-19T04:17:30;100202.89;;;11.45;39.16
76819;BME280;65772;51.096;17.006;2023-03-19T04:20:01;100200.30;;;11.44;38.96
76819;BME280;65772;51.096;17.006;2023-03-19T04:22:33;100202.17;;;11.43;39.10
76819;BME280;65772;51.096;17.006;2023-03-19T04:25:05;100199.94;;;11.42;39.43
76819;BME280;65772;51.096;17.006;2023-03-19T04:27:37;100195.48;;;11.42;39.18
76819;BME280;65772;51.096;17.006;2023-03-19T04:30:11;100201.43;;;11.41;39.27
76819;BME280;65772;51.096;17.006;2023-03-19T04:32:42;100204.83;;;11.39;39.27
76819;BME280;65772;51.096;17.006;2023-03-19T04:35:13;100201.21;;;11.39;39.37
76819;BME280;65772;51.096;17.006;2023-03-19T04:37:44;100196.77;;;11.39;39.32
76819;BME280;65772;51.096;17.006;2023-03-19T04:40:18;100191.42;;;11.37;39.33
76819;BME280;65772;51.096;17.006;2023-03-19T04:42:49;100192.27;;;11.36;39.51
76819;BME280;65772;51.096;17.006;2023-03-19T04:45:36;100192.07;;;11.35;39.35
76819;BME280;65772;51.096;17.006;2023-03-19T04:48:07;100192.92;;;11.35;39.55
76819;BME280;65772;51.096;17.006;2023-03-19T04:50:38;100195.80;;;11.35;39.51
76819;BME280;65772;51.096;17.006;2023-03-19T04:53:09;100193.92;;;11.34;39.51
76819;BME280;65772;51.096;17.006;2023-03-19T04:55:39;100193.05;;;11.32;39.32
76819;BME280;65772;51.096;17.006;2023-03-19T04:58:15;100187.89;;;11.31;39.42
76819;BME280;65772;51.096;17.006;2023-03-19T05:00:48;100180.66;;;11.29;39.62
76819;BME280;65772;51.096;17.006;2023-03-19T05:03:22;100180.60;;;11.27;39.88
76819;BME280;65772;51.096;17.006;2023-03-19T05:05:53;100183.30;;;11.26;39.73
76819;BME280;65772;51.096;17.006;2023-03-19T05:08:24;100188.40;;;11.25;39.87
76819;BME280;65772;51.096;17.006;2023-03-19T05:10:55;100191.96;;;11.24;39.68
76819;BME280;65772;51.096;17.006;2023-03-19T05:13:27;100190.05;;;11.23;39.94
76819;BME280;65772;51.096;17.006;2023-03-19T05:15:58;100197.08;;;11.22;39.76
76819;BME280;65772;51.096;17.006;2023-03-19T05:18:28;100203.36;;;11.21;39.96
76819;BME280;65772;51.096;17.006;2023-03-19T05:20:59;100208.44;;;11.19;39.98
76819;BME280;65772;51.096;17.006;2023-03-19T05:23:30;100205.86;;;11.19;39.99
76819;BME280;65772;51.096;17.006;2023-03-19T05:26:05;100207.20;;;11.18;39.83
76819;BME280;65772;51.096;17.006;2023-03-19T05:28:55;100207.52;;;11.17;39.82
76819;BME280;65772;51.096;17.006;2023-03-19T05:31:33;100206.83;;;11.17;39.88
76819;BME280;65772;51.096;17.006;2023-03-19T05:34:04;100207.50;;;11.16;40.01
76819;BME280;65772;51.096;17.006;2023-03-19T05:36:36;100207.11;;;11.15;40.03
76819;BME280;65772;51.096;17.006;2023-03-19T05:39:12;100208.80;;;11.14;40.16
76819;BME280;65772;51.096;17.006;2023-03-19T05:41:43;100204.85;;;11.13;39.98
76819;BME280;65772;51.096;17.006;2023-03-19T05:44:19;100203.64;;;11.12;40.18
76819;BME280;65772;51.096;17.006;2023-03-19T05:46:58;100200.21;;;11.11;40.15
76819;BME280;65772;51.096;17.006;2023-03-19T05:49:31;100201.92;;;11.11;40.18
76819;BME280;65772;51.096;17.006;2023-03-19T05:52:02;100206.34;;;11.11;40.29
76819;BME280;65772;51.096;17.006;2023-03-19T05:54:33;100208.36;;;11.09;40.22
76819;BME280;65772;51.096;17.006;2023-03-19T05:57:09;100214.64;;;11.08;40.56
76819;BME280;65772;51.096;17.006;2023-03-19T05:59:48;100214.13;;;11.08;40.60
76819;BME280;65772;51.096;17.006;2023-03-19T06:02:28;100215.48;;;11.08;40.63
76819;BME280;65772;51.096;17.006;2023-03-19T06:05:10;100217.41;;;11.09;40.72
76819;BME280;65772;51.096;17.006;2023-03-19T06:07:40;100217.77;;;11.10;40.83
76819;BME280;65772;51.096;17.006;2023-03-19T06:10:17;100217.30;;;11.12;40.77
76819;BME280;65772;51.096;17.006;2023-03-19T06:12:47;100212.71;;;11.14;40.63
76819;BME280;65772;51.096;17.006;2023-03-19T06:15:50;100213.44;;;11.15;40.75
76819;BME280;65772;51.096;17.006;2023-03-19T06:18:34;100215.89;;;11.17;41.00
76819;BME280;65772;51.096;17.006;2023-03-19T06:21:13;100214.08;;;11.19;41.01
76819;BME280;65772;51.096;17.006;2023-03-19T06:23:44;100218.56;;;11.21;40.97
76819;BME280;65772;51.096;17.006;2023-03-19T06:26:17;100221.66;;;11.22;40.73
76819;BME280;65772;51.096;17.006;2023-03-19T06:28:54;100228.86;;;11.23;40.91
76819;BME280;65772;51.096;17.006;2023-03-19T06:31:24;100231.59;;;11.24;40.86
76819;BME280;65772;51.096;17.006;2023-03-19T06:33:56;100229.59;;;11.26;41.24
76819;BME280;65772;51.096;17.006;2023-03-19T06:36:31;100224.86;;;11.28;41.15
76819;BME280;65772;51.096;17.006;2023-03-19T06:39:03;100230.39;;;11.29;41.20
76819;BME280;65772;51.096;17.006;2023-03-19T06:41:33;100237.64;;;11.32;41.50
76819;BME280;65772;51.096;17.006;2023-03-19T06:44:15;100240.73;;;11.34;41.21
76819;BME280;65772;51.096;17.006;2023-03-19T06:46:45;100243.85;;;11.35;41.51
76819;BME280;65772;51.096;17.006;2023-03-19T06:49:16;100246.81;;;11.37;41.51
76819;BME280;65772;51.096;17.006;2023-03-19T06:51:46;100249.11;;;11.40;41.49
76819;BME280;65772;51.096;17.006;2023-03-19T06:54:17;100245.58;;;11.43;41.47
76819;BME280;65772;51.096;17.006;2023-03-19T06:56:47;100245.95;;;11.45;41.41
76819;BME280;65772;51.096;17.006;2023-03-19T06:59:19;100248.57;;;11.47;41.74
76819;BME280;65772;51.096;17.006;2023-03-19T07:01:50;100248.98;;;11.49;41.60
76819;BME280;65772;51.096;17.006;2023-03-19T07:04:21;100249.89;;;11.51;41.75
76819;BME280;65772;51.096;17.006;2023-03-19T07:06:52;100250.80;;;11.54;42.12
76819;BME280;65772;51.096;17.006;2023-03-19T07:09:22;100242.79;;;11.56;42.56
76819;BME280;65772;51.096;17.006;2023-03-19T07:11:53;100240.98;;;11.58;43.03
76819;BME280;65772;51.096;17.006;2023-03-19T07:14:23;100246.04;;;11.62;42.60
76819;BME280;65772;51.096;17.006;2023-03-19T07:16:54;100252.43;;;11.65;42.42
76819;BME280;65772;51.096;17.006;2023-03-19T07:19:25;100257.61;;;11.67;42.49
76819;BME280;65772;51.096;17.006;2023-03-19T07:21:55;100259.92;;;11.71;42.13
76819;BME280;65772;51.096;17.006;2023-03-19T07:24:26;100262.39;;;11.74;42.28
76819;BME280;65772;51.096;17.006;2023-03-19T07:26:56;100255.11;;;11.77;42.59
76819;BME280;65772;51.096;17.006;2023-03-19T07:29:27;100252.77;;;11.79;42.63
76819;BME280;65772;51.096;17.006;2023-03-19T07:31:58;100252.14;;;11.81;42.81
76819;BME280;65772;51.096;17.006;2023-03-19T07:36:18;100257.08;;;11.87;42.78
76819;BME280;65772;51.096;17.006;2023-03-19T07:38:50;100265.67;;;11.90;43.10
76819;BME280;65772;51.096;17.006;2023-03-19T07:41:20;100274.17;;;11.94;43.05
76819;BME280;65772;51.096;17.006;2023-03-19T07:43:51;100278.52;;;11.98;42.79
76819;BME280;65772;51.096;17.006;2023-03-19T07:46:22;100276.67;;;11.99;42.64
76819;BME280;65772;51.096;17.006;2023-03-19T07:48:52;100274.50;;;12.01;42.60
76819;BME280;65772;51.096;17.006;2023-03-19T07:51:23;100269.41;;;12.03;42.57
76819;BME280;65772;51.096;17.006;2023-03-19T07:53:53;100274.77;;;12.05;42.58
76819;BME280;65772;51.096;17.006;2023-03-19T07:56:24;100281.33;;;12.08;42.54
76819;BME280;65772;51.096;17.006;2023-03-19T07:58:54;100278.63;;;12.10;42.49
76819;BME280;65772;51.096;17.006;2023-03-19T08:01:25;100277.66;;;12.13;42.68
76819;BME280;65772;51.096;17.006;2023-03-19T08:03:56;100275.86;;;12.16;42.72
76819;BME280;65772;51.096;17.006;2023-03-19T08:06:27;100271.13;;;12.19;42.58
76819;BME280;65772;51.096;17.006;2023-03-19T08:08:57;100273.02;;;12.20;42.53
76819;BME280;65772;51.096;17.006;2023-03-19T08:11:28;100276.35;;;12.23;42.65
76819;BME280;65772;51.096;17.006;2023-03-19T08:13:59;100274.02;;;12.26;42.72
76819;BME280;65772;51.096;17.006;2023-03-19T08:16:29;100267.91;;;12.28;42.60
76819;BME280;65772;51.096;17.006;2023-03-19T08:19:00;100266.41;;;12.31;42.92
76819;BME280;65772;51.096;17.006;2023-03-19T08:21:30;100269.08;;;12.35;43.07
76819;BME280;65772;51.096;17.006;2023-03-19T08:24:02;100264.53;;;12.39;43.30
76819;BME280;65772;51.096;17.006;2023-03-19T08:26:33;100266.46;;;12.42;43.28
76819;BME280;65772;51.096;17.006;2023-03-19T08:29:04;100275.45;;;12.45;43.46
76819;BME280;65772;51.096;17.006;2023-03-19T08:31:35;100277.59;;;12.50;43.58
76819;BME280;65772;51.096;17.006;2023-03-19T08:34:05;100277.81;;;12.53;43.51
76819;BME280;65772;51.096;17.006;2023-03-19T08:36:38;100267.64;;;12.57;43.82
76819;BME280;65772;51.096;17.006;2023-03-19T08:39:09;100264.45;;;12.62;44.04
76819;BME280;65772;51.096;17.006;2023-03-19T08:41:39;100258.02;;;12.65;43.87
76819;BME280;65772;51.096;17.006;2023-03-19T08:44:10;100252.97;;;12.69;44.05
76819;BME280;65772;51.096;17.006;2023-03-19T08:46:40;100255.61;;;12.73;44.89
76819;BME280;65772;51.096;17.006;2023-03-19T08:49:11;100260.54;;;12.79;45.19
76819;BME280;65772;51.096;17.006;2023-03-19T08:51:41;100258.02;;;12.83;44.54
76819;BME280;65772;51.096;17.006;2023-03-19T08:54:13;100251.77;;;12.87;44.28
76819;BME280;65772;51.096;17.006;2023-03-19T08:56:43;100251.52;;;12.91;44.34
76819;BME280;65772;51.096;17.006;2023-03-19T08:59:15;100254.47;;;12.95;44.09
76819;BME280;65772;51.096;17.006;2023-03-19T09:01:49;100257.64;;;12.98;43.61
76819;BME280;65772;51.096;17.006;2023-03-19T09:04:21;100254.95;;;13.02;43.65
76819;BME280;65772;51.096;17.006;2023-03-19T09:06:52;100249.19;;;13.05;43.19
76819;BME280;65772;51.096;17.006;2023-03-19T09:09:23;100249.76;;;13.08;43.19
76819;BME280;65772;51.096;17.006;2023-03-19T09:11:54;100254.80;;;13.11;43.18
76819;BME280;65772;51.096;17.006;2023-03-19T09:14:25;100252.47;;;13.15;42.99
76819;BME280;65772;51.096;17.006;2023-03-19T09:16:55;100250.51;;;13.20;42.83
76819;BME280;65772;51.096;17.006;2023-03-19T09:19:26;100249.37;;;13.24;42.75
76819;BME280;65772;51.096;17.006;2023-03-19T09:21:56;100244.27;;;13.27;42.51
76819;BME280;65772;51.096;17.006;2023-03-19T09:24:27;100236.79;;;13.30;42.19
76819;BME280;65772;51.096;17.006;2023-03-19T09:26:58;100234.80;;;13.34;42.30
76819;BME280;65772;51.096;17.006;2023-03-19T09:29:29;100231.91;;;13.36;42.22
76819;BME280;65772;51.096;17.006;2023-03-19T09:32:00;100234.05;;;13.41;42.45
76819;BME280;65772;51.096;17.006;2023-03-19T09:34:31;100231.90;;;13.45;43.03
76819;BME280;65772;51.096;17.006;2023-03-19T09:37:01;100237.79;;;13.50;43.60
76819;BME280;65772;51.096;17.006;2023-03-19T09:39:32;100244.39;;;13.55;43.89
76819;BME280;65772;51.096;17.006;2023-03-19T09:42:14;100241.54;;;13.60;43.81
76819;BME280;65772;51.096;17.006;2023-03-19T09:44:49;100239.22;;;13.64;43.73
76819;BME280;65772;51.096;17.006;2023-03-19T09:47:26;100241.48;;;13.68;43.70
76819;BME280;65772;51.096;17.006;2023-03-19T09:50:00;100229.20;;;13.72;43.76
76819;BME280;65772;51.096;17.006;2023-03-19T09:52:42;100220.53;;;13.76;44.06
76819;BME280;65772;51.096;17.006;2023-03-19T09:55:33;100222.98;;;13.81;44.54
76819;BME280;65772;51.096;17.006;2023-03-19T09:58:13;100221.54;;;13.86;45.42
76819;BME280;65772;51.096;17.006;2023-03-19T10:00:48;100220.73;;;13.92;45.50
76819;BME280;65772;51.096;17.006;2023-03-19T10:03:32;100226.82;;;13.98;45.38
76819;BME280;65772;51.096;17.006;2023-03-19T10:06:25;100222.45;;;14.04;44.94
76819;BME280;65772;51.096;17.006;2023-03-19T10:09:12;100209.46;;;14.09;44.66
76819;BME280;65772;51.096;17.006;2023-03-19T10:11:57;100206.30;;;14.16;45.99
76819;BME280;65772;51.096;17.006;2023-03-19T10:14:46;100206.40;;;14.24;47.02
76819;BME280;65772;51.096;17.006;2023-03-19T10:17:21;100201.33;;;14.32;45.53
76819;BME280;65772;51.096;17.006;2023-03-19T10:19:58;100195.42;;;14.38;45.80
76819;BME280;65772;51.096;17.006;2023-03-19T10:22:35;100198.59;;;14.44;45.69
76819;BME280;65772;51.096;17.006;2023-03-19T10:25:11;100197.80;;;14.49;44.45
76819;BME280;65772;51.096;17.006;2023-03-19T10:27:44;100195.77;;;14.51;43.40
76819;BME280;65772;51.096;17.006;2023-03-19T10:30:17;100196.80;;;14.53;42.90
76819;BME280;65772;51.096;17.006;2023-03-19T10:32:56;100203.55;;;14.57;42.18
76819;BME280;65772;51.096;17.006;2023-03-19T10:35:38;100209.77;;;14.60;41.95
76819;BME280;65772;51.096;17.006;2023-03-19T10:38:22;100208.40;;;14.61;41.13
76819;BME280;65772;51.096;17.006;2023-03-19T10:41:04;100203.80;;;14.65;40.80
76819;BME280;65772;51.096;17.006;2023-03-19T10:43:41;100197.30;;;14.67;41.15
76819;BME280;65772;51.096;17.006;2023-03-19T10:46:13;100189.94;;;14.70;41.64
76819;BME280;65772;51.096;17.006;2023-03-19T10:48:46;100191.85;;;14.73;42.13
76819;BME280;65772;51.096;17.006;2023-03-19T10:51:20;100188.81;;;14.77;42.37
76819;BME280;65772;51.096;17.006;2023-03-19T10:53:52;100186.61;;;14.81;42.85
76819;BME280;65772;51.096;17.006;2023-03-19T10:56:26;100188.19;;;14.85;42.80
76819;BME280;65772;51.096;17.006;2023-03-19T10:59:03;100189.80;;;14.91;42.53
76819;BME280;65772;51.096;17.006;2023-03-19T11:01:37;100183.30;;;14.95;41.96
76819;BME280;65772;51.096;17.006;2023-03-19T11:04:15;100184.02;;;14.99;42.11
76819;BME280;65772;51.096;17.006;2023-03-19T11:06:50;100185.95;;;15.05;42.72
76819;BME280;65772;51.096;17.006;2023-03-19T11:09:25;100183.60;;;15.09;42.50
76819;BME280;65772;51.096;17.006;2023-03-19T11:12:07;100180.57;;;15.17;43.90
76819;BME280;65772;51.096;17.006;2023-03-19T11:14:47;100178.23;;;15.26;42.26
76819;BME280;65772;51.096;17.006;2023-03-19T11:17:22;100180.35;;;15.33;41.53
76819;BME280;65772;51.096;17.006;2023-03-19T11:19:56;100177.81;;;15.40;40.83
76819;BME280;65772;51.096;17.006;2023-03-19T11:22:28;100176.98;;;15.44;40.56
76819;BME280;65772;51.096;17.006;2023-03-19T11:25:09;100170.46;;;15.48;40.49
76819;BME280;65772;51.096;17.006;2023-03-19T11:27:44;100168.11;;;15.53;40.76
76819;BME280;65772;51.096;17.006;2023-03-19T11:30:30;100166.27;;;15.58;40.40
76819;BME280;65772;51.096;17.006;2023-03-19T11:33:10;100164.41;;;15.64;40.62
76819;BME280;65772;51.096;17.006;2023-03-19T11:35:50;100164.77;;;15.69;40.42
76819;BME280;65772;51.096;17.006;2023-03-19T11:38:32;100164.83;;;15.75;40.85
76819;BME280;65772;51.096;17.006;2023-03-19T11:41:11;100159.49;;;15.80;40.66
76819;BME280;65772;51.096;17.006;2023-03-19T11:43:50;100154.22;;;15.88;40.43
76819;BME280;65772;51.096;17.006;2023-03-19T11:46:35;100150.09;;;15.94;41.09
76819;BME280;65772;51.096;17.006;2023-03-19T11:49:18;100148.23;;;16.00;41.32
76819;BME280;65772;51.096;17.006;2023-03-19T11:52:01;100150.49;;;16.05;41.29
76819;BME280;65772;51.096;17.006;2023-03-19T11:54:41;100145.88;;;16.10;41.31
76819;BME280;65772;51.096;17.006;2023-03-19T11:57:20;100143.46;;;16.16;41.59
76819;BME280;65772;51.096;17.006;2023-03-19T12:00:16;100138.66;;;16.21;41.59
76819;BME280;65772;51.096;17.006;2023-03-19T12:03:17;100129.55;;;16.27;40.91
76819;BME280;65772;51.096;17.006;2023-03-19T12:05:56;100124.40;;;16.31;40.44
76819;BME280;65772;51.096;17.006;2023-03-19T12:08:38;100122.69;;;16.35;40.81
76819;BME280;65772;51.096;17.006;2023-03-19T12:11:18;100128.73;;;16.40;41.02
76819;BME280;65772;51.096;17.006;2023-03-19T12:14:04;100129.23;;;16.43;40.66
76819;BME280;65772;51.096;17.006;2023-03-19T12:16:49;100129.23;;;16.44;40.45
76819;BME280;65772;51.096;17.006;2023-03-19T12:19:40;100131.14;;;16.46;39.91
76819;BME280;65772;51.096;17.006;2023-03-19T12:22:22;100133.04;;;16.47;39.46
76819;BME280;65772;51.096;17.006;2023-03-19T12:25:06;100130.64;;;16.48;38.90
76819;BME280;65772;51.096;17.006;2023-03-19T12:27:41;100132.37;;;16.50;38.47
76819;BME280;65772;51.096;17.006;2023-03-19T12:30:21;100131.17;;;16.52;38.60
76819;BME280;65772;51.096;17.006;2023-03-19T12:35:44;100131.69;;;16.59;40.84
76819;BME280;65772;51.096;17.006;2023-03-19T12:38:21;100137.92;;;16.64;40.53
76819;BME280;65772;51.096;17.006;2023-03-19T12:40:57;100135.01;;;16.67;40.70
76819;BME280;65772;51.096;17.006;2023-03-19T12:43:33;100129.85;;;16.71;41.70
76819;BME280;65772;51.096;17.006;2023-03-19T12:46:09;100125.52;;;16.76;42.87
76819;BME280;65772;51.096;17.006;2023-03-19T12:48:45;100126.58;;;16.81;42.70
76819;BME280;65772;51.096;17.006;2023-03-19T12:51:20;100123.63;;;16.87;43.03
76819;BME280;65772;51.096;17.006;2023-03-19T12:53:57;100119.52;;;16.91;43.12
76819;BME280;65772;51.096;17.006;2023-03-19T12:56:33;100117.45;;;16.94;42.69
76819;BME280;65772;51.096;17.006;2023-03-19T12:59:12;100116.55;;;16.96;42.54
76819;BME280;65772;51.096;17.006;2023-03-19T13:01:48;100112.94;;;17.00;42.63
76819;BME280;65772;51.096;17.006;2023-03-19T13:04:23;100111.75;;;17.04;42.35
76819;BME280;65772;51.096;17.006;2023-03-19T13:07:00;100112.08;;;17.07;41.52
76819;BME280;65772;51.096;17.006;2023-03-19T13:09:37;100109.48;;;17.10;42.04
76819;BME280;65772;51.096;17.006;2023-03-19T13:12:14;100108.46;;;17.13;41.52
76819;BME280;65772;51.096;17.006;2023-03-19T13:14:54;100112.76;;;17.17;42.78
76819;BME280;65772;51.096;17.006;2023-03-19T13:17:33;100111.73;;;17.21;43.71
76819;BME280;65772;51.096;17.006;2023-03-19T13:20:15;100108.09;;;17.26;44.13
76819;BME280;65772;51.096;17.006;2023-03-19T13:22:53;100110.15;;;17.31;44.29